sensor_id;sensor_type;location;lat;lon;timestamp;P1;durP1;ratioP1;P2;durP2;ratioP2
16824;SDS011;8529;48.108;-1.706;2022-08-19T00:01:43;2.85;;;2.25;;
16824;SDS011;8529;48.108;-1.706;2022-08-19T00:04:12;2.53;;;2.22;;
16824;SDS011;8529;48.108;-1.706;2022-08-19T00:06:41;4.60;;;2.53;;
16824;SDS011;8529;48.108;-1.706;2022-08-19T00:09:10;3.45;;;2.03;;
16824;SDS011;8529;48.108;-1.706;2022-08-19T00:11:41;3.22;;;2.00;;
16824;SDS011;8529;48.108;-1.706;2022-08-19T00:14:09;3.42;;;1.80;;
16824;SDS011;8529;48.108;-1.706;2022-08-19T00:16:40;3.08;;;2.03;;
16824;SDS011;8529;48.108;-1.706;2022-08-19T00:19:08;3.38;;;1.90;;
16824;SDS011;8529;48.108;-1.706;2022-08-19T00:21:35;2.72;;;1.70;;
16824;SDS011;8529;48.108;-1.706;2022-08-19T00:24:04;3.47;;;1.90;;
16824;SDS011;8529;48.108;-1.706;2022-08-19T00:26:32;4.13;;;1.75;;
16824;SDS011;8529;48.108;-1.706;2022-08-19T00:29:00;2.05;;;1.83;;
16824;SDS011;8529;48.108;-1.706;2022-08-19T00:31:28;4.85;;;1.80;;
16824;SDS011;8529;48.108;-1.706;2022-08-19T00:33:56;5.30;;;2.00;;
16824;SDS011;8529;48.108;-1.706;2022-08-19T00:36:23;2.38;;;1.80;;
16824;SDS011;8529;48.108;-1.706;2022-08-19T00:38:50;2.10;;;1.73;;
16824;SDS011;8529;48.108;-1.706;2022-08-19T00:41:18;1.40;;;1.30;;
16824;SDS011;8529;48.108;-1.706;2022-08-19T00:43:56;1.92;;;1.40;;
16824;SDS011;8529;48.108;-1.706;2022-08-19T00:46:25;2.55;;;1.48;;
16824;SDS011;8529;48.108;-1.706;2022-08-19T00:48:53;1.65;;;1.55;;
16824;SDS011;8529;48.108;-1.706;2022-08-19T00:51:20;1.50;;;1.40;;
16824;SDS011;8529;48.108;-1.706;2022-08-19T00:53:48;1.63;;;1.50;;
16824;SDS011;8529;48.108;-1.706;2022-08-19T00:56:15;3.15;;;1.70;;
16824;SDS011;8529;48.108;-1.706;2022-08-19T00:58:43;1.92;;;1.60;;
16824;SDS011;8529;48.108;-1.706;2022-08-19T01:01:10;3.00;;;1.60;;
16824;SDS011;8529;48.108;-1.706;2022-08-19T01:03:40;3.03;;;1.80;;
16824;SDS011;8529;48.108;-1.706;2022-08-19T01:06:07;2.15;;;1.60;;
16824;SDS011;8529;48.108;-1.706;2022-08-19T01:08:34;1.92;;;1.58;;
16824;SDS011;8529;48.108;-1.706;2022-08-19T01:11:01;4.00;;;2.00;;
16824;SDS011;8529;48.108;-1.706;2022-08-19T01:13:29;2.60;;;2.17;;
16824;SDS011;8529;48.108;-1.706;2022-08-19T01:16:00;2.28;;;1.73;;
16824;SDS011;8529;48.108;-1.706;2022-08-19T01:18:29;1.85;;;1.63;;
16824;SDS011;8529;48.108;-1.706;2022-08-19T01:23:48;2.30;;;1.67;;
16824;SDS011;8529;48.108;-1.706;2022-08-19T01:26:17;3.47;;;1.90;;
16824;SDS011;8529;48.108;-1.706;2022-08-19T01:28:48;4.07;;;2.20;;
16824;SDS011;8529;48.108;-1.706;2022-08-19T01:31:19;4.35;;;1.98;;
16824;SDS011;8529;48.108;-1.706;2022-08-19T01:33:47;3.58;;;2.03;;
16824;SDS011;8529;48.108;-1.706;2022-08-19T01:36:16;2.80;;;2.00;;
16824;SDS011;8529;48.108;-1.706;2022-08-19T01:38:52;2.85;;;1.95;;
16824;SDS011;8529;48.108;-1.706;2022-08-19T01:41:19;2.83;;;2.15;;
16824;SDS011;8529;48.108;-1.706;2022-08-19T01:43:48;2.58;;;1.98;;
16824;SDS011;8529;48.108;-1.706;2022-08-19T01:46:16;3.70;;;2.03;;
16824;SDS011;8529;48.108;-1.706;2022-08-19T01:48:43;4.05;;;2.20;;
16824;SDS011;8529;48.108;-1.706;2022-08-19T01:51:11;3.80;;;2.63;;
16824;SDS011;8529;48.108;-1.706;2022-08-19T01:53:39;2.30;;;2.08;;
16824;SDS011;8529;48.108;-1.706;2022-08-19T01:56:08;3.97;;;2.72;;
16824;SDS011;8529;48.108;-1.706;2022-08-19T01:58:36;2.65;;;1.90;;
16824;SDS011;8529;48.108;-1.706;2022-08-19T02:01:06;3.17;;;2.20;;
16824;SDS011;8529;48.108;-1.706;2022-08-19T02:03:33;3.50;;;2.25;;
16824;SDS011;8529;48.108;-1.706;2022-08-19T02:06:01;5.32;;;2.97;;
16824;SDS011;8529;48.108;-1.706;2022-08-19T02:08:30;5.28;;;2.65;;
16824;SDS011;8529;48.108;-1.706;2022-08-19T02:10:58;6.55;;;2.63;;
16824;SDS011;8529;48.108;-1.706;2022-08-19T02:13:26;4.60;;;2.30;;
16824;SDS011;8529;48.108;-1.706;2022-08-19T02:15:54;3.00;;;2.20;;
16824;SDS011;8529;48.108;-1.706;2022-08-19T02:18:21;2.67;;;2.00;;
16824;SDS011;8529;48.108;-1.706;2022-08-19T02:20:48;4.40;;;2.38;;
16824;SDS011;8529;48.108;-1.706;2022-08-19T02:23:15;2.75;;;2.33;;
16824;SDS011;8529;48.108;-1.706;2022-08-19T02:25:43;3.88;;;2.30;;
16824;SDS011;8529;48.108;-1.706;2022-08-19T02:28:13;4.70;;;2.78;;
16824;SDS011;8529;48.108;-1.706;2022-08-19T02:30:42;5.10;;;2.85;;
16824;SDS011;8529;48.108;-1.706;2022-08-19T02:33:09;3.30;;;2.38;;
16824;SDS011;8529;48.108;-1.706;2022-08-19T02:35:36;6.53;;;2.22;;
16824;SDS011;8529;48.108;-1.706;2022-08-19T02:38:02;4.57;;;2.60;;
16824;SDS011;8529;48.108;-1.706;2022-08-19T02:40:50;3.40;;;2.33;;
16824;SDS011;8529;48.108;-1.706;2022-08-19T02:43:19;2.92;;;2.28;;
16824;SDS011;8529;48.108;-1.706;2022-08-19T02:45:48;2.55;;;2.20;;
16824;SDS011;8529;48.108;-1.706;2022-08-19T02:48:16;3.53;;;2.58;;
16824;SDS011;8529;48.108;-1.706;2022-08-19T02:50:44;3.40;;;2.20;;
16824;SDS011;8529;48.108;-1.706;2022-08-19T02:53:12;4.97;;;2.55;;
16824;SDS011;8529;48.108;-1.706;2022-08-19T02:55:42;3.25;;;2.30;;
16824;SDS011;8529;48.108;-1.706;2022-08-19T02:58:10;3.97;;;2.17;;
16824;SDS011;8529;48.108;-1.706;2022-08-19T03:00:41;3.78;;;2.35;;
16824;SDS011;8529;48.108;-1.706;2022-08-19T03:03:10;4.43;;;2.53;;
16824;SDS011;8529;48.108;-1.706;2022-08-19T03:05:38;3.25;;;1.98;;
16824;SDS011;8529;48.108;-1.706;2022-08-19T03:08:07;3.05;;;2.28;;
16824;SDS011;8529;48.108;-1.706;2022-08-19T03:10:39;2.30;;;2.08;;
16824;SDS011;8529;48.108;-1.706;2022-08-19T03:13:09;2.83;;;1.90;;
16824;SDS011;8529;48.108;-1.706;2022-08-19T03:15:38;2.50;;;2.05;;
16824;SDS011;8529;48.108;-1.706;2022-08-19T03:18:06;2.63;;;2.20;;
16824;SDS011;8529;48.108;-1.706;2022-08-19T03:20:35;3.22;;;2.08;;
16824;SDS011;8529;48.108;-1.706;2022-08-19T03:23:06;2.60;;;2.20;;
16824;SDS011;8529;48.108;-1.706;2022-08-19T03:25:35;4.07;;;2.47;;
16824;SDS011;8529;48.108;-1.706;2022-08-19T03:28:03;3.58;;;2.30;;
16824;SDS011;8529;48.108;-1.706;2022-08-19T03:30:30;4.70;;;2.20;;
16824;SDS011;8529;48.108;-1.706;2022-08-19T03:32:57;3.33;;;2.08;;
16824;SDS011;8529;48.108;-1.706;2022-08-19T03:35:24;3.45;;;1.90;;
16824;SDS011;8529;48.108;-1.706;2022-08-19T03:37:53;2.97;;;1.83;;
16824;SDS011;8529;48.108;-1.706;2022-08-19T03:40:21;2.72;;;1.75;;
16824;SDS011;8529;48.108;-1.706;2022-08-19T03:42:48;3.00;;;2.03;;
16824;SDS011;8529;48.108;-1.706;2022-08-19T03:45:15;2.55;;;1.67;;
16824;SDS011;8529;48.108;-1.706;2022-08-19T03:47:42;2.72;;;1.98;;
16824;SDS011;8529;48.108;-1.706;2022-08-19T03:50:10;2.97;;;1.98;;
16824;SDS011;8529;48.108;-1.706;2022-08-19T03:52:37;2.38;;;1.80;;
16824;SDS011;8529;48.108;-1.706;2022-08-19T03:55:06;2.40;;;1.77;;
16824;SDS011;8529;48.108;-1.706;2022-08-19T03:57:33;4.65;;;2.00;;
16824;SDS011;8529;48.108;-1.706;2022-08-19T04:00:00;2.25;;;1.85;;
16824;SDS011;8529;48.108;-1.706;2022-08-19T04:02:29;2.17;;;1.75;;
16824;SDS011;8529;48.108;-1.706;2022-08-19T04:04:56;3.17;;;2.00;;
16824;SDS011;8529;48.108;-1.706;2022-08-19T04:07:23;4.13;;;2.00;;
16824;SDS011;8529;48.108;-1.706;2022-08-19T04:09:50;2.25;;;1.77;;
16824;SDS011;8529;48.108;-1.706;2022-08-19T04:12:19;2.58;;;2.00;;
16824;SDS011;8529;48.108;-1.706;2022-08-19T04:14:46;3.28;;;1.85;;
16824;SDS011;8529;48.108;-1.706;2022-08-19T04:17:13;2.80;;;1.83;;
16824;SDS011;8529;48.108;-1.706;2022-08-19T04:19:40;3.17;;;1.83;;
16824;SDS011;8529;48.108;-1.706;2022-08-19T04:22:07;2.85;;;2.25;;
16824;SDS011;8529;48.108;-1.706;2022-08-19T04:24:36;3.10;;;1.80;;
16824;SDS011;8529;48.108;-1.706;2022-08-19T04:27:03;2.58;;;1.90;;
16824;SDS011;8529;48.108;-1.706;2022-08-19T04:29:33;2.78;;;2.13;;
16824;SDS011;8529;48.108;-1.706;2022-08-19T04:32:00;4.32;;;1.80;;
16824;SDS011;8529;48.108;-1.706;2022-08-19T04:34:27;2.25;;;1.83;;
16824;SDS011;8529;48.108;-1.706;2022-08-19T04:36:55;4.15;;;2.13;;
16824;SDS011;8529;48.108;-1.706;2022-08-19T04:39:24;3.35;;;1.75;;
16824;SDS011;8529;48.108;-1.706;2022-08-19T04:42:13;1.98;;;1.70;;
16824;SDS011;8529;48.108;-1.706;2022-08-19T04:44:59;3.53;;;2.00;;
16824;SDS011;8529;48.108;-1.706;2022-08-19T04:47:28;3.72;;;1.90;;
16824;SDS011;8529;48.108;-1.706;2022-08-19T04:49:56;3.70;;;2.35;;
16824;SDS011;8529;48.108;-1.706;2022-08-19T04:52:23;3.80;;;1.95;;
16824;SDS011;8529;48.108;-1.706;2022-08-19T04:54:50;3.28;;;1.73;;
16824;SDS011;8529;48.108;-1.706;2022-08-19T04:57:17;4.18;;;1.85;;
16824;SDS011;8529;48.108;-1.706;2022-08-19T04:59:44;4.20;;;2.38;;
16824;SDS011;8529;48.108;-1.706;2022-08-19T05:02:12;3.85;;;2.25;;
16824;SDS011;8529;48.108;-1.706;2022-08-19T05:04:39;4.10;;;2.65;;
16824;SDS011;8529;48.108;-1.706;2022-08-19T05:07:06;3.05;;;2.20;;
16824;SDS011;8529;48.108;-1.706;2022-08-19T05:09:34;3.08;;;2.13;;
16824;SDS011;8529;48.108;-1.706;2022-08-19T05:12:02;4.00;;;2.08;;
16824;SDS011;8529;48.108;-1.706;2022-08-19T05:14:30;3.20;;;2.45;;
16824;SDS011;8529;48.108;-1.706;2022-08-19T05:16:57;3.67;;;2.17;;
16824;SDS011;8529;48.108;-1.706;2022-08-19T05:19:25;4.45;;;2.33;;
16824;SDS011;8529;48.108;-1.706;2022-08-19T05:22:10;4.90;;;2.63;;
16824;SDS011;8529;48.108;-1.706;2022-08-19T05:24:54;3.15;;;2.38;;
16824;SDS011;8529;48.108;-1.706;2022-08-19T05:27:21;3.28;;;2.35;;
16824;SDS011;8529;48.108;-1.706;2022-08-19T05:29:48;4.15;;;2.80;;
16824;SDS011;8529;48.108;-1.706;2022-08-19T05:32:15;2.72;;;2.00;;
16824;SDS011;8529;48.108;-1.706;2022-08-19T05:34:43;3.80;;;2.60;;
16824;SDS011;8529;48.108;-1.706;2022-08-19T05:37:10;5.03;;;2.40;;
16824;SDS011;8529;48.108;-1.706;2022-08-19T05:39:37;4.63;;;2.50;;
16824;SDS011;8529;48.108;-1.706;2022-08-19T05:42:06;3.53;;;2.53;;
16824;SDS011;8529;48.108;-1.706;2022-08-19T05:44:35;2.88;;;2.17;;
16824;SDS011;8529;48.108;-1.706;2022-08-19T05:47:05;2.97;;;2.03;;
16824;SDS011;8529;48.108;-1.706;2022-08-19T05:49:34;3.20;;;2.40;;
16824;SDS011;8529;48.108;-1.706;2022-08-19T05:52:04;3.47;;;2.67;;
16824;SDS011;8529;48.108;-1.706;2022-08-19T05:54:32;8.60;;;3.25;;
16824;SDS011;8529;48.108;-1.706;2022-08-19T05:57:01;4.50;;;2.85;;
16824;SDS011;8529;48.108;-1.706;2022-08-19T05:59:28;4.45;;;2.63;;
16824;SDS011;8529;48.108;-1.706;2022-08-19T06:01:56;3.72;;;2.95;;
16824;SDS011;8529;48.108;-1.706;2022-08-19T06:04:23;3.05;;;2.15;;
16824;SDS011;8529;48.108;-1.706;2022-08-19T06:06:51;3.00;;;1.98;;
16824;SDS011;8529;48.108;-1.706;2022-08-19T06:09:20;3.63;;;2.25;;
16824;SDS011;8529;48.108;-1.706;2022-08-19T06:11:49;4.13;;;2.60;;
16824;SDS011;8529;48.108;-1.706;2022-08-19T06:14:20;3.15;;;2.40;;
16824;SDS011;8529;48.108;-1.706;2022-08-19T06:16:49;4.47;;;2.90;;
16824;SDS011;8529;48.108;-1.706;2022-08-19T06:19:18;3.53;;;2.08;;
16824;SDS011;8529;48.108;-1.706;2022-08-19T06:21:47;3.80;;;2.85;;
16824;SDS011;8529;48.108;-1.706;2022-08-19T06:24:17;5.35;;;2.45;;
16824;SDS011;8529;48.108;-1.706;2022-08-19T06:26:47;2.97;;;2.67;;
16824;SDS011;8529;48.108;-1.706;2022-08-19T06:29:15;5.38;;;2.97;;
16824;SDS011;8529;48.108;-1.706;2022-08-19T06:31:43;4.97;;;2.92;;
16824;SDS011;8529;48.108;-1.706;2022-08-19T06:34:12;3.90;;;2.78;;
16824;SDS011;8529;48.108;-1.706;2022-08-19T06:36:40;3.67;;;2.50;;
16824;SDS011;8529;48.108;-1.706;2022-08-19T06:39:10;5.32;;;3.05;;
16824;SDS011;8529;48.108;-1.706;2022-08-19T06:41:39;3.97;;;3.03;;
16824;SDS011;8529;48.108;-1.706;2022-08-19T06:44:09;4.95;;;2.85;;
16824;SDS011;8529;48.108;-1.706;2022-08-19T06:46:37;3.75;;;2.80;;
16824;SDS011;8529;48.108;-1.706;2022-08-19T06:49:04;3.75;;;2.72;;
16824;SDS011;8529;48.108;-1.706;2022-08-19T06:51:35;4.85;;;2.83;;
16824;SDS011;8529;48.108;-1.706;2022-08-19T06:54:02;6.40;;;3.30;;
16824;SDS011;8529;48.108;-1.706;2022-08-19T06:56:30;4.10;;;3.10;;
16824;SDS011;8529;48.108;-1.706;2022-08-19T06:58:59;3.92;;;3.05;;
16824;SDS011;8529;48.108;-1.706;2022-08-19T07:01:28;3.40;;;2.70;;
16824;SDS011;8529;48.108;-1.706;2022-08-19T07:03:55;3.83;;;3.00;;
16824;SDS011;8529;48.108;-1.706;2022-08-19T07:06:22;5.47;;;2.92;;
16824;SDS011;8529;48.108;-1.706;2022-08-19T07:08:50;6.28;;;3.33;;
16824;SDS011;8529;48.108;-1.706;2022-08-19T07:11:17;8.00;;;3.47;;
16824;SDS011;8529;48.108;-1.706;2022-08-19T07:13:45;7.20;;;3.50;;
16824;SDS011;8529;48.108;-1.706;2022-08-19T07:16:15;5.80;;;2.90;;
16824;SDS011;8529;48.108;-1.706;2022-08-19T07:18:46;3.85;;;2.70;;
16824;SDS011;8529;48.108;-1.706;2022-08-19T07:21:14;6.30;;;3.17;;
16824;SDS011;8529;48.108;-1.706;2022-08-19T07:23:42;4.80;;;2.95;;
16824;SDS011;8529;48.108;-1.706;2022-08-19T07:26:11;5.10;;;3.35;;
16824;SDS011;8529;48.108;-1.706;2022-08-19T07:28:40;4.85;;;2.70;;
16824;SDS011;8529;48.108;-1.706;2022-08-19T07:31:09;5.95;;;3.28;;
16824;SDS011;8529;48.108;-1.706;2022-08-19T07:33:36;5.43;;;3.13;;
16824;SDS011;8529;48.108;-1.706;2022-08-19T07:36:06;5.40;;;3.38;;
16824;SDS011;8529;48.108;-1.706;2022-08-19T07:38:35;5.43;;;3.28;;
16824;SDS011;8529;48.108;-1.706;2022-08-19T07:41:02;6.00;;;3.28;;
16824;SDS011;8529;48.108;-1.706;2022-08-19T07:43:29;6.30;;;3.10;;
16824;SDS011;8529;48.108;-1.706;2022-08-19T07:45:56;7.85;;;3.88;;
16824;SDS011;8529;48.108;-1.706;2022-08-19T07:48:24;5.72;;;3.13;;
16824;SDS011;8529;48.108;-1.706;2022-08-19T07:50:52;5.80;;;2.67;;
16824;SDS011;8529;48.108;-1.706;2022-08-19T07:53:21;6.20;;;3.67;;
16824;SDS011;8529;48.108;-1.706;2022-08-19T07:55:48;7.35;;;3.25;;
16824;SDS011;8529;48.108;-1.706;2022-08-19T07:58:17;7.60;;;3.22;;
16824;SDS011;8529;48.108;-1.706;2022-08-19T08:00:46;4.82;;;3.03;;
16824;SDS011;8529;48.108;-1.706;2022-08-19T08:03:15;6.75;;;3.08;;
16824;SDS011;8529;48.108;-1.706;2022-08-19T08:05:44;4.50;;;3.15;;
16824;SDS011;8529;48.108;-1.706;2022-08-19T08:08:30;5.85;;;3.20;;
16824;SDS011;8529;48.108;-1.706;2022-08-19T08:11:15;6.38;;;3.42;;
16824;SDS011;8529;48.108;-1.706;2022-08-19T08:13:46;5.93;;;2.88;;
16824;SDS011;8529;48.108;-1.706;2022-08-19T08:16:14;6.82;;;3.10;;
16824;SDS011;8529;48.108;-1.706;2022-08-19T08:18:41;6.22;;;3.20;;
16824;SDS011;8529;48.108;-1.706;2022-08-19T08:21:08;5.45;;;2.67;;
16824;SDS011;8529;48.108;-1.706;2022-08-19T08:23:36;5.07;;;3.08;;
16824;SDS011;8529;48.108;-1.706;2022-08-19T08:26:03;6.28;;;2.90;;
16824;SDS011;8529;48.108;-1.706;2022-08-19T08:28:30;5.82;;;2.42;;
16824;SDS011;8529;48.108;-1.706;2022-08-19T08:30:57;5.80;;;2.60;;
16824;SDS011;8529;48.108;-1.706;2022-08-19T08:33:26;7.20;;;2.90;;
16824;SDS011;8529;48.108;-1.706;2022-08-19T08:35:54;8.40;;;3.00;;
16824;SDS011;8529;48.108;-1.706;2022-08-19T08:38:22;6.55;;;2.97;;
16824;SDS011;8529;48.108;-1.706;2022-08-19T08:40:52;5.63;;;2.90;;
16824;SDS011;8529;48.108;-1.706;2022-08-19T08:43:30;6.13;;;2.60;;
16824;SDS011;8529;48.108;-1.706;2022-08-19T08:46:01;5.47;;;3.03;;
16824;SDS011;8529;48.108;-1.706;2022-08-19T08:48:36;5.25;;;2.50;;
16824;SDS011;8529;48.108;-1.706;2022-08-19T08:51:08;5.78;;;3.15;;
16824;SDS011;8529;48.108;-1.706;2022-08-19T08:53:38;6.03;;;2.95;;
16824;SDS011;8529;48.108;-1.706;2022-08-19T08:56:09;6.07;;;3.05;;
16824;SDS011;8529;48.108;-1.706;2022-08-19T08:58:41;5.55;;;2.63;;
16824;SDS011;8529;48.108;-1.706;2022-08-19T09:01:15;6.55;;;3.38;;
16824;SDS011;8529;48.108;-1.706;2022-08-19T09:03:42;4.35;;;2.72;;
16824;SDS011;8529;48.108;-1.706;2022-08-19T09:06:12;3.72;;;2.33;;
16824;SDS011;8529;48.108;-1.706;2022-08-19T09:08:46;4.07;;;2.47;;
16824;SDS011;8529;48.108;-1.706;2022-08-19T09:11:23;5.97;;;2.70;;
16824;SDS011;8529;48.108;-1.706;2022-08-19T09:14:02;4.43;;;2.60;;
16824;SDS011;8529;48.108;-1.706;2022-08-19T09:16:37;8.45;;;2.92;;
16824;SDS011;8529;48.108;-1.706;2022-08-19T09:19:06;4.20;;;2.35;;
16824;SDS011;8529;48.108;-1.706;2022-08-19T09:21:35;4.65;;;2.88;;
16824;SDS011;8529;48.108;-1.706;2022-08-19T09:24:03;5.35;;;2.85;;
16824;SDS011;8529;48.108;-1.706;2022-08-19T09:26:32;5.90;;;2.55;;
16824;SDS011;8529;48.108;-1.706;2022-08-19T09:28:59;4.78;;;2.22;;
16824;SDS011;8529;48.108;-1.706;2022-08-19T09:31:28;5.18;;;2.40;;
16824;SDS011;8529;48.108;-1.706;2022-08-19T09:33:55;3.50;;;2.03;;
16824;SDS011;8529;48.108;-1.706;2022-08-19T09:36:23;5.43;;;2.45;;
16824;SDS011;8529;48.108;-1.706;2022-08-19T09:38:54;5.22;;;2.40;;
16824;SDS011;8529;48.108;-1.706;2022-08-19T09:41:22;4.10;;;2.13;;
16824;SDS011;8529;48.108;-1.706;2022-08-19T09:43:52;5.57;;;2.65;;
16824;SDS011;8529;48.108;-1.706;2022-08-19T09:46:21;5.22;;;2.47;;
16824;SDS011;8529;48.108;-1.706;2022-08-19T09:48:51;5.57;;;2.95;;
16824;SDS011;8529;48.108;-1.706;2022-08-19T09:51:19;4.75;;;2.70;;
16824;SDS011;8529;48.108;-1.706;2022-08-19T09:53:48;3.30;;;2.05;;
16824;SDS011;8529;48.108;-1.706;2022-08-19T09:56:16;4.13;;;2.20;;
16824;SDS011;8529;48.108;-1.706;2022-08-19T09:58:44;3.83;;;2.40;;
16824;SDS011;8529;48.108;-1.706;2022-08-19T10:01:17;3.05;;;1.98;;
16824;SDS011;8529;48.108;-1.706;2022-08-19T10:03:46;4.28;;;2.03;;
16824;SDS011;8529;48.108;-1.706;2022-08-19T10:06:15;4.28;;;1.83;;
16824;SDS011;8529;48.108;-1.706;2022-08-19T10:08:43;6.47;;;2.13;;
16824;SDS011;8529;48.108;-1.706;2022-08-19T10:11:11;3.28;;;2.10;;
16824;SDS011;8529;48.108;-1.706;2022-08-19T10:13:40;4.85;;;2.08;;
16824;SDS011;8529;48.108;-1.706;2022-08-19T10:16:09;6.03;;;2.08;;
16824;SDS011;8529;48.108;-1.706;2022-08-19T10:18:41;4.38;;;2.22;;
16824;SDS011;8529;48.108;-1.706;2022-08-19T10:21:09;3.33;;;1.88;;
16824;SDS011;8529;48.108;-1.706;2022-08-19T10:23:39;3.90;;;2.00;;
16824;SDS011;8529;48.108;-1.706;2022-08-19T10:26:10;4.53;;;1.90;;
16824;SDS011;8529;48.108;-1.706;2022-08-19T10:28:38;3.97;;;2.25;;
16824;SDS011;8529;48.108;-1.706;2022-08-19T10:31:05;3.60;;;1.55;;
16824;SDS011;8529;48.108;-1.706;2022-08-19T10:33:33;4.95;;;2.45;;
16824;SDS011;8529;48.108;-1.706;2022-08-19T10:36:03;4.90;;;1.90;;
16824;SDS011;8529;48.108;-1.706;2022-08-19T10:38:32;4.22;;;2.17;;
16824;SDS011;8529;48.108;-1.706;2022-08-19T10:41:06;2.65;;;1.65;;
16824;SDS011;8529;48.108;-1.706;2022-08-19T10:43:34;5.18;;;1.80;;
16824;SDS011;8529;48.108;-1.706;2022-08-19T10:46:03;3.53;;;1.75;;
16824;SDS011;8529;48.108;-1.706;2022-08-19T10:48:31;4.05;;;2.00;;
16824;SDS011;8529;48.108;-1.706;2022-08-19T10:50:58;3.63;;;1.90;;
16824;SDS011;8529;48.108;-1.706;2022-08-19T10:53:43;3.35;;;1.50;;
16824;SDS011;8529;48.108;-1.706;2022-08-19T10:56:10;1.75;;;1.33;;
16824;SDS011;8529;48.108;-1.706;2022-08-19T10:58:55;3.05;;;1.40;;
16824;SDS011;8529;48.108;-1.706;2022-08-19T11:01:23;4.22;;;1.38;;
16824;SDS011;8529;48.108;-1.706;2022-08-19T11:03:50;2.95;;;2.40;;
16824;SDS011;8529;48.108;-1.706;2022-08-19T11:06:17;3.63;;;1.50;;
16824;SDS011;8529;48.108;-1.706;2022-08-19T11:08:47;6.03;;;1.52;;
16824;SDS011;8529;48.108;-1.706;2022-08-19T11:11:14;1.90;;;1.27;;
16824;SDS011;8529;48.108;-1.706;2022-08-19T11:13:41;2.60;;;1.50;;
16824;SDS011;8529;48.108;-1.706;2022-08-19T11:16:11;2.13;;;1.92;;
16824;SDS011;8529;48.108;-1.706;2022-08-19T11:18:42;3.55;;;1.50;;
16824;SDS011;8529;48.108;-1.706;2022-08-19T11:21:12;6.40;;;1.83;;
16824;SDS011;8529;48.108;-1.706;2022-08-19T11:23:42;2.53;;;1.50;;
16824;SDS011;8529;48.108;-1.706;2022-08-19T11:26:11;3.25;;;1.42;;
16824;SDS011;8529;48.108;-1.706;2022-08-19T11:28:38;2.38;;;1.48;;
16824;SDS011;8529;48.108;-1.706;2022-08-19T11:31:09;4.88;;;1.30;;
16824;SDS011;8529;48.108;-1.706;2022-08-19T11:33:36;1.90;;;1.15;;
16824;SDS011;8529;48.108;-1.706;2022-08-19T11:36:04;1.95;;;1.38;;
16824;SDS011;8529;48.108;-1.706;2022-08-19T11:38:31;2.17;;;1.60;;
16824;SDS011;8529;48.108;-1.706;2022-08-19T11:41:00;1.73;;;1.25;;
16824;SDS011;8529;48.108;-1.706;2022-08-19T11:43:29;2.47;;;1.10;;
16824;SDS011;8529;48.108;-1.706;2022-08-19T11:45:57;1.77;;;1.08;;
16824;SDS011;8529;48.108;-1.706;2022-08-19T11:48:24;2.42;;;1.42;;
16824;SDS011;8529;48.108;-1.706;2022-08-19T11:50:52;1.23;;;1.10;;
16824;SDS011;8529;48.108;-1.706;2022-08-19T11:53:21;2.03;;;1.50;;
16824;SDS011;8529;48.108;-1.706;2022-08-19T11:55:48;1.48;;;1.20;;
16824;SDS011;8529;48.108;-1.706;2022-08-19T11:58:16;1.85;;;0.90;;
16824;SDS011;8529;48.108;-1.706;2022-08-19T12:00:45;2.67;;;1.42;;
16824;SDS011;8529;48.108;-1.706;2022-08-19T12:03:12;1.50;;;1.05;;
16824;SDS011;8529;48.108;-1.706;2022-08-19T12:05:39;2.17;;;1.10;;
16824;SDS011;8529;48.108;-1.706;2022-08-19T12:08:07;2.10;;;1.23;;
16824;SDS011;8529;48.108;-1.706;2022-08-19T12:10:34;2.70;;;1.30;;
16824;SDS011;8529;48.108;-1.706;2022-08-19T12:13:02;4.50;;;1.15;;
16824;SDS011;8529;48.108;-1.706;2022-08-19T12:15:29;2.20;;;1.25;;
16824;SDS011;8529;48.108;-1.706;2022-08-19T12:17:57;3.38;;;1.08;;
16824;SDS011;8529;48.108;-1.706;2022-08-19T12:20:24;2.05;;;1.08;;
16824;SDS011;8529;48.108;-1.706;2022-08-19T12:22:51;3.65;;;1.45;;
16824;SDS011;8529;48.108;-1.706;2022-08-19T12:25:18;2.45;;;1.38;;
16824;SDS011;8529;48.108;-1.706;2022-08-19T12:27:45;3.85;;;1.30;;
16824;SDS011;8529;48.108;-1.706;2022-08-19T12:30:13;1.98;;;1.27;;
16824;SDS011;8529;48.108;-1.706;2022-08-19T12:32:40;4.75;;;1.58;;
16824;SDS011;8529;48.108;-1.706;2022-08-19T12:35:08;3.05;;;1.40;;
16824;SDS011;8529;48.108;-1.706;2022-08-19T12:37:36;2.22;;;1.20;;
16824;SDS011;8529;48.108;-1.706;2022-08-19T12:40:04;2.15;;;1.00;;
16824;SDS011;8529;48.108;-1.706;2022-08-19T12:42:31;4.05;;;1.33;;
16824;SDS011;8529;48.108;-1.706;2022-08-19T12:44:58;3.30;;;1.10;;
16824;SDS011;8529;48.108;-1.706;2022-08-19T12:47:25;3.28;;;1.13;;
16824;SDS011;8529;48.108;-1.706;2022-08-19T12:49:52;2.08;;;1.20;;
16824;SDS011;8529;48.108;-1.706;2022-08-19T12:52:20;1.70;;;1.15;;
16824;SDS011;8529;48.108;-1.706;2022-08-19T12:54:48;2.55;;;1.40;;
16824;SDS011;8529;48.108;-1.706;2022-08-19T12:57:15;2.25;;;0.95;;
16824;SDS011;8529;48.108;-1.706;2022-08-19T12:59:42;1.48;;;1.17;;
16824;SDS011;8529;48.108;-1.706;2022-08-19T13:02:09;1.70;;;1.17;;
16824;SDS011;8529;48.108;-1.706;2022-08-19T13:04:36;4.10;;;1.23;;
16824;SDS011;8529;48.108;-1.706;2022-08-19T13:07:06;2.10;;;1.30;;
16824;SDS011;8529;48.108;-1.706;2022-08-19T13:09:35;2.30;;;1.15;;
16824;SDS011;8529;48.108;-1.706;2022-08-19T13:12:02;2.95;;;1.10;;
16824;SDS011;8529;48.108;-1.706;2022-08-19T13:14:33;1.88;;;1.10;;
16824;SDS011;8529;48.108;-1.706;2022-08-19T13:17:00;2.08;;;1.08;;
16824;SDS011;8529;48.108;-1.706;2022-08-19T13:19:27;1.58;;;1.23;;
16824;SDS011;8529;48.108;-1.706;2022-08-19T13:21:56;1.35;;;0.95;;
16824;SDS011;8529;48.108;-1.706;2022-08-19T13:24:23;1.10;;;0.80;;
16824;SDS011;8529;48.108;-1.706;2022-08-19T13:26:52;1.52;;;0.90;;
16824;SDS011;8529;48.108;-1.706;2022-08-19T13:29:19;2.33;;;1.23;;
16824;SDS011;8529;48.108;-1.706;2022-08-19T13:32:03;2.92;;;1.15;;
16824;SDS011;8529;48.108;-1.706;2022-08-19T13:34:47;1.60;;;0.98;;
16824;SDS011;8529;48.108;-1.706;2022-08-19T13:37:14;2.53;;;1.35;;
16824;SDS011;8529;48.108;-1.706;2022-08-19T13:40:01;1.42;;;0.93;;
16824;SDS011;8529;48.108;-1.706;2022-08-19T13:42:30;3.13;;;1.25;;
16824;SDS011;8529;48.108;-1.706;2022-08-19T13:44:58;1.38;;;0.90;;
16824;SDS011;8529;48.108;-1.706;2022-08-19T13:47:24;5.78;;;1.15;;
16824;SDS011;8529;48.108;-1.706;2022-08-19T13:49:51;3.20;;;1.10;;
16824;SDS011;8529;48.108;-1.706;2022-08-19T13:52:18;2.80;;;1.10;;
16824;SDS011;8529;48.108;-1.706;2022-08-19T13:54:45;0.70;;;0.32;;
16824;SDS011;8529;48.108;-1.706;2022-08-19T13:57:13;0.68;;;0.20;;
16824;SDS011;8529;48.108;-1.706;2022-08-19T13:59:41;0.63;;;0.30;;
16824;SDS011;8529;48.108;-1.706;2022-08-19T14:02:08;1.65;;;0.20;;
16824;SDS011;8529;48.108;-1.706;2022-08-19T14:04:35;2.92;;;0.43;;
16824;SDS011;8529;48.108;-1.706;2022-08-19T14:07:03;4.00;;;0.60;;
16824;SDS011;8529;48.108;-1.706;2022-08-19T14:09:30;1.95;;;0.30;;
16824;SDS011;8529;48.108;-1.706;2022-08-19T14:11:57;1.58;;;0.40;;
16824;SDS011;8529;48.108;-1.706;2022-08-19T14:14:24;0.63;;;0.30;;
16824;SDS011;8529;48.108;-1.706;2022-08-19T14:16:52;1.48;;;0.57;;
16824;SDS011;8529;48.108;-1.706;2022-08-19T14:19:19;8.48;;;0.73;;
16824;SDS011;8529;48.108;-1.706;2022-08-19T14:21:46;1.15;;;0.60;;
16824;SDS011;8529;48.108;-1.706;2022-08-19T14:24:13;3.38;;;0.30;;
16824;SDS011;8529;48.108;-1.706;2022-08-19T14:26:40;2.20;;;0.63;;
16824;SDS011;8529;48.108;-1.706;2022-08-19T14:29:07;0.80;;;0.30;;
16824;SDS011;8529;48.108;-1.706;2022-08-19T14:31:34;0.68;;;0.50;;
16824;SDS011;8529;48.108;-1.706;2022-08-19T14:34:02;3.72;;;0.50;;
16824;SDS011;8529;48.108;-1.706;2022-08-19T14:36:29;3.35;;;1.00;;
16824;SDS011;8529;48.108;-1.706;2022-08-19T14:38:57;6.70;;;0.98;;
16824;SDS011;8529;48.108;-1.706;2022-08-19T14:41:26;4.63;;;0.98;;
16824;SDS011;8529;48.108;-1.706;2022-08-19T14:43:53;1.33;;;0.30;;
16824;SDS011;8529;48.108;-1.706;2022-08-19T14:46:21;0.80;;;0.20;;
16824;SDS011;8529;48.108;-1.706;2022-08-19T14:48:49;0.40;;;0.30;;
16824;SDS011;8529;48.108;-1.706;2022-08-19T14:51:18;0.20;;;0.20;;
16824;SDS011;8529;48.108;-1.706;2022-08-19T14:53:46;0.70;;;0.32;;
16824;SDS011;8529;48.108;-1.706;2022-08-19T14:56:15;0.43;;;0.40;;
16824;SDS011;8529;48.108;-1.706;2022-08-19T14:58:43;0.35;;;0.30;;
16824;SDS011;8529;48.108;-1.706;2022-08-19T15:01:11;0.60;;;0.43;;